createdAt,value
2022-10-22T00:02:49.929Z,44.2
2022-10-22T00:18:32.267Z,45.5
2022-10-22T00:34:15.255Z,39.2
2022-10-22T00:49:57.698Z,49.4
2022-10-22T01:05:39.822Z,47.3
2022-10-22T01:21:22.560Z,46.6
2022-10-22T01:37:04.942Z,44.4
2022-10-22T01:52:47.143Z,45.9
2022-10-22T02:08:30.107Z,46.9
2022-10-22T02:24:12.971Z,57.7
2022-10-22T02:39:55.174Z,48.5
2022-10-22T02:55:37.660Z,49.9
2022-10-22T03:11:20.186Z,54.1
2022-10-22T03:27:02.393Z,39.4
2022-10-22T03:42:44.618Z,47
2022-10-22T03:58:26.671Z,54.5
2022-10-22T04:14:09.240Z,53.6
2022-10-22T04:29:51.906Z,56
2022-10-22T04:45:34.949Z,57.8
2022-10-22T05:01:17.258Z,59.5
2022-10-22T05:17:00.159Z,51
2022-10-22T05:32:42.779Z,48.5
2022-10-22T05:48:25.018Z,45.8
2022-10-22T06:04:07.006Z,52.5
2022-10-22T06:19:49.208Z,54.8
2022-10-22T06:35:32.005Z,61.5
2022-10-22T06:51:14.433Z,66.1
2022-10-22T07:06:57.191Z,68.6
2022-10-22T07:22:39.741Z,60.8
2022-10-22T07:38:21.792Z,65.9
2022-10-22T07:54:04.591Z,56.8
2022-10-22T08:09:47.400Z,38.3
2022-10-22T08:25:29.794Z,40.8
2022-10-22T08:41:11.787Z,37.7
2022-10-22T08:56:54.399Z,33.09
2022-10-22T09:12:36.450Z,25.7
2022-10-22T09:28:18.512Z,20.5
2022-10-22T09:44:00.562Z,16.79
2022-10-22T09:59:42.953Z,19.4
2022-10-22T10:15:25.265Z,12.6
2022-10-22T10:31:07.812Z,17.1
2022-10-22T10:46:50.081Z,16.2
2022-10-22T11:02:33.040Z,15.5
2022-10-22T11:18:15.193Z,15.2
2022-10-22T11:33:58.139Z,16
2022-10-22T11:49:40.614Z,13.8
2022-10-22T12:05:23.055Z,13.1
2022-10-22T12:21:05.001Z,11.5
2022-10-22T12:36:47.079Z,9.2
2022-10-22T12:52:28.979Z,9.5
2022-10-22T13:08:10.944Z,5.8
2022-10-22T13:08:58.159Z,5.7
2022-10-22T13:24:40.281Z,5.8
2022-10-22T13:40:23.098Z,5.7
2022-10-22T13:56:05.211Z,8
2022-10-22T14:11:47.463Z,5.8
2022-10-22T14:27:29.853Z,6.3
2022-10-22T14:43:12.067Z,6.8
2022-10-22T14:58:55.041Z,6.4
2022-10-22T15:14:37.280Z,7.7
2022-10-22T15:30:19.970Z,8.39
2022-10-22T15:46:02.110Z,7.5
2022-10-22T16:01:44.387Z,7.8
2022-10-22T16:17:26.567Z,8
2022-10-22T16:33:08.724Z,9.89
2022-10-22T16:48:51.124Z,11.6
2022-10-22T17:04:33.567Z,13.8
2022-10-22T17:20:16.248Z,22.4
2022-10-22T17:35:59.023Z,19.7
2022-10-22T17:51:41.847Z,17.79
2022-10-22T18:07:24.240Z,19
2022-10-22T18:23:07.042Z,17
2022-10-22T18:38:49.626Z,16
2022-10-22T18:54:32.533Z,16.6
2022-10-22T19:10:15.298Z,16.79
2022-10-22T19:25:58.174Z,17.4
2022-10-22T19:41:40.890Z,19.1
2022-10-22T19:57:23.677Z,16.5
2022-10-22T20:13:05.875Z,22
2022-10-22T20:28:47.914Z,24.6
2022-10-22T20:44:30.494Z,26.2
2022-10-22T21:00:13.389Z,20.7
2022-10-22T21:15:56.069Z,16.29
2022-10-22T21:31:38.053Z,14.9
2022-10-22T21:47:20.998Z,12.1
2022-10-22T22:03:03.170Z,11.7
2022-10-22T22:18:45.237Z,13
2022-10-22T22:34:27.965Z,12.2
2022-10-22T22:50:10.835Z,9.2
2022-10-22T23:05:53.006Z,11.7
2022-10-22T23:21:35.216Z,16.6
2022-10-22T23:37:17.507Z,19.1
2022-10-22T23:53:00.003Z,19.1
